Time;durP1;ratioP1;P1;durP2;ratioP2;P2;SDS_P1;SDS_P2;PMS_P1;PMS_P2;Temp;Humidity;BMP_temperature;BMP_pressure;BME280_temperature;BME280_humidity;BME280_pressure;Samples;Min_cycle;Max_cycle;Signal;HPM_P1;HPM_P2
2023/11/17 00:02:27;;;;;;;8.30;7.20;;;;;;;-128.00;-1.00;-1.00;106902;1254;1002087;-60
2023/11/17 00:04:54;;;;;;;6.90;6.10;;;;;;;-128.00;-1.00;-1.00;106987;1250;1002009;-59
2023/11/17 00:07:22;;;;;;;8.20;7.30;;;;;;;-128.00;-1.00;-1.00;106927;1250;1002395;-59
2023/11/17 00:09:49;;;;;;;9.50;6.90;;;;;;;-128.00;-1.00;-1.00;106928;1250;1002252;-58
2023/11/17 00:12:18;;;;;;;12.30;8.40;;;;;;;-128.00;-1.00;-1.00;106913;1253;1002005;-58
2023/11/17 00:14:45;;;;;;;8.90;6.20;;;;;;;-128.00;-1.00;-1.00;106935;1253;1012649;-58
2023/11/17 00:17:13;;;;;;;11.40;9.20;;;;;;;-128.00;-1.00;-1.00;106927;1250;1002614;-58
2023/11/17 00:19:40;;;;;;;8.40;7.20;;;;;;;-128.00;-1.00;-1.00;106644;1250;1002383;-58
2023/11/17 00:22:08;;;;;;;5.30;4.80;;;;;;;-128.00;-1.00;-1.00;106921;1251;1002860;-61
2023/11/17 00:24:36;;;;;;;6.40;5.20;;;;;;;-128.00;-1.00;-1.00;106965;1250;1002823;-58
2023/11/17 00:27:03;;;;;;;22.20;12.60;;;;;;;-128.00;-1.00;-1.00;106878;1251;1002466;-58
2023/11/17 00:29:31;;;;;;;21.50;19.40;;;;;;;-128.00;-1.00;-1.00;106893;1252;1002602;-58
2023/11/17 00:31:59;;;;;;;21.20;16.70;;;;;;;-128.00;-1.00;-1.00;106704;1250;1002448;-58
2023/11/17 00:34:26;;;;;;;15.90;11.20;;;;;;;-128.00;-1.00;-1.00;106940;1254;1002528;-60
2023/11/17 00:36:54;;;;;;;52.80;34.60;;;;;;;-128.00;-1.00;-1.00;106919;1251;1002148;-59
2023/11/17 00:39:21;;;;;;;15.50;11.50;;;;;;;-128.00;-1.00;-1.00;106469;1251;1002637;-58
2023/11/17 00:41:49;;;;;;;15.80;10.80;;;;;;;-128.00;-1.00;-1.00;106876;1252;1002500;-58
2023/11/17 00:44:16;;;;;;;13.20;9.20;;;;;;;-128.00;-1.00;-1.00;106925;1252;1002460;-58
2023/11/17 00:46:45;;;;;;;16.20;13.20;;;;;;;-128.00;-1.00;-1.00;106689;1254;1002580;-58
2023/11/17 00:49:13;;;;;;;6.40;5.40;;;;;;;-128.00;-1.00;-1.00;106614;1253;1013030;-58
2023/11/17 00:51:41;;;;;;;7.30;5.60;;;;;;;-128.00;-1.00;-1.00;106594;1253;1002499;-59
2023/11/17 00:54:09;;;;;;;6.30;5.70;;;;;;;-128.00;-1.00;-1.00;106596;1253;1002121;-57
2023/11/17 00:56:36;;;;;;;6.20;5.60;;;;;;;-128.00;-1.00;-1.00;106639;1254;1002050;-58
2023/11/17 00:59:04;;;;;;;7.00;4.80;;;;;;;-128.00;-1.00;-1.00;106565;1254;1002871;-58
2023/11/17 01:01:34;;;;;;;6.40;5.80;;;;;;;-128.00;-1.00;-1.00;106614;1254;1002697;-58
2023/11/17 01:04:02;;;;;;;5.80;5.20;;;;;;;-128.00;-1.00;-1.00;106455;1254;1013412;-58
2023/11/17 01:06:29;;;;;;;6.20;5.60;;;;;;;-128.00;-1.00;-1.00;106622;1255;1001865;-58
2023/11/17 01:08:57;;;;;;;5.80;4.80;;;;;;;-128.00;-1.00;-1.00;106587;1255;1002940;-59
2023/11/17 01:11:26;;;;;;;7.50;5.20;;;;;;;-128.00;-1.00;-1.00;106544;1254;1002598;-58
2023/11/17 01:13:53;;;;;;;;;;;;;;;-128.00;-1.00;-1.00;106637;1254;1013333;-58
2023/11/17 01:16:21;;;;;;;7.00;5.40;;;;;;;-128.00;-1.00;-1.00;106460;1261;1002965;-58
2023/11/17 01:18:50;;;;;;;7.00;6.30;;;;;;;-128.00;-1.00;-1.00;106863;1252;1002403;-58
2023/11/17 01:21:18;;;;;;;6.00;5.40;;;;;;;-128.00;-1.00;-1.00;106894;1252;1010603;-58
2023/11/17 01:23:45;;;;;;;6.60;5.40;;;;;;;-128.00;-1.00;-1.00;106981;1252;1001987;-58
2023/11/17 01:26:13;;;;;;;6.90;5.20;;;;;;;-128.00;-1.00;-1.00;106945;1252;1002247;-57
2023/11/17 01:28:42;;;;;;;7.10;5.70;;;;;;;-128.00;-1.00;-1.00;106960;1252;1002725;-58
2023/11/17 01:31:10;;;;;;;6.70;6.10;;;;;;;-128.00;-1.00;-1.00;106997;1252;1012391;-57
2023/11/17 01:33:38;;;;;;;6.70;6.20;;;;;;;-128.00;-1.00;-1.00;106781;1252;1010714;-57
2023/11/17 01:36:06;;;;;;;5.80;5.20;;;;;;;-128.00;-1.00;-1.00;106923;1252;1002446;-57
2023/11/17 01:38:33;;;;;;;5.80;5.30;;;;;;;-128.00;-1.00;-1.00;106873;1253;1002619;-58
2023/11/17 01:41:16;;;;;;;8.00;6.20;;;;;;;-128.00;-1.00;-1.00;106938;1252;1012172;-57
2023/11/17 01:43:44;;;;;;;5.70;5.00;;;;;;;-128.00;-1.00;-1.00;106747;1253;1002518;-58
2023/11/17 01:46:11;;;;;;;7.30;6.50;;;;;;;-128.00;-1.00;-1.00;106963;1252;1002219;-58
2023/11/17 01:48:39;;;;;;;7.40;6.70;;;;;;;-128.00;-1.00;-1.00;106959;1251;1002397;-57
2023/11/17 01:51:07;;;;;;;11.70;6.90;;;;;;;-128.00;-1.00;-1.00;106953;1252;1002978;-58
2023/11/17 01:53:35;;;;;;;8.40;7.40;;;;;;;-128.00;-1.00;-1.00;106704;1252;1013532;-57
2023/11/17 01:56:04;;;;;;;14.70;9.70;;;;;;;-128.00;-1.00;-1.00;106981;1252;1002527;-57
2023/11/17 01:58:33;;;;;;;22.80;11.00;;;;;;;-128.00;-1.00;-1.00;106718;1252;1010583;-57
2023/11/17 02:01:01;;;;;;;23.10;12.00;;;;;;;-128.00;-1.00;-1.00;106940;1252;1011311;-57
2023/11/17 02:03:29;;;;;;;34.90;18.30;;;;;;;-128.00;-1.00;-1.00;106916;1252;1013386;-58
2023/11/17 02:06:05;;;;;;;30.30;16.00;;;;;;;-128.00;-1.00;-1.00;106887;1252;1001991;-59
2023/11/17 02:08:46;;;;;;;12.30;8.60;;;;;;;-128.00;-1.00;-1.00;106652;1252;1012552;-57
2023/11/17 02:11:20;;;;;;;27.50;16.90;;;;;;;-128.00;-1.00;-1.00;106646;1253;1009842;-57
2023/11/17 02:13:58;;;;;;;48.90;24.80;;;;;;;-128.00;-1.00;-1.00;106908;1252;1010987;-58
2023/11/17 02:16:26;;;;;;;41.60;25.90;;;;;;;-128.00;-1.00;-1.00;106710;1252;1012091;-58
2023/11/17 02:18:55;;;;;;;58.30;38.40;;;;;;;-128.00;-1.00;-1.00;106816;1252;1002446;-57
2023/11/17 02:21:30;;;;;;;39.00;23.80;;;;;;;-128.00;-1.00;-1.00;106728;1252;1012888;-57
2023/11/17 02:23:59;;;;;;;34.30;20.20;;;;;;;-128.00;-1.00;-1.00;106748;1253;1009871;-57
2023/11/17 02:26:31;;;;;;;38.40;19.70;;;;;;;-128.00;-1.00;-1.00;106752;1252;1010222;-57
2023/11/17 02:29:10;;;;;;;32.70;16.40;;;;;;;-128.00;-1.00;-1.00;106746;1253;1012778;-58
2023/11/17 02:31:39;;;;;;;91.60;42.10;;;;;;;-128.00;-1.00;-1.00;106643;1253;1012815;-58
2023/11/17 02:34:11;;;;;;;48.30;25.40;;;;;;;-128.00;-1.00;-1.00;106562;1256;1013429;-57
2023/11/17 02:36:39;;;;;;;;;;;;;;;-128.00;-1.00;-1.00;106562;1256;1010130;-59
2023/11/17 02:39:25;;;;;;;36.50;19.00;;;;;;;-128.00;-1.00;-1.00;106458;1255;1002119;-58
2023/11/17 02:41:57;;;;;;;29.90;17.20;;;;;;;-128.00;-1.00;-1.00;106406;1256;1012364;-58
2023/11/17 02:44:29;;;;;;;45.80;23.40;;;;;;;-128.00;-1.00;-1.00;106483;1260;1012302;-57
2023/11/17 02:47:02;;;;;;;49.40;26.10;;;;;;;-128.00;-1.00;-1.00;106307;1256;1012817;-57
2023/11/17 02:49:45;;;;;;;45.20;24.50;;;;;;;-128.00;-1.00;-1.00;106413;1256;1009899;-59
2023/11/17 02:52:24;;;;;;;38.10;20.40;;;;;;;-128.00;-1.00;-1.00;106476;1256;1011244;-58
2023/11/17 02:54:52;;;;;;;;;;;;;;;-128.00;-1.00;-1.00;106384;1256;1012551;-58
2023/11/17 02:57:22;;;;;;;20.80;14.70;;;;;;;-128.00;-1.00;-1.00;106371;1255;1002908;-58
2023/11/17 02:59:50;;;;;;;22.10;13.40;;;;;;;-128.00;-1.00;-1.00;106534;1256;1013276;-57
2023/11/17 03:02:19;;;;;;;16.20;11.70;;;;;;;-128.00;-1.00;-1.00;106431;1256;1002342;-58
2023/11/17 03:04:54;;;;;;;18.50;11.10;;;;;;;-128.00;-1.00;-1.00;106484;1253;1011005;-57
2023/11/17 03:07:21;;;;;;;18.10;11.90;;;;;;;-128.00;-1.00;-1.00;106855;1253;1013549;-57
2023/11/17 03:09:51;;;;;;;21.50;12.60;;;;;;;-128.00;-1.00;-1.00;106538;1255;1002658;-59
2023/11/17 03:12:20;;;;;;;22.00;11.80;;;;;;;-128.00;-1.00;-1.00;106570;1255;1012045;-58
2023/11/17 03:14:48;;;;;;;26.50;14.00;;;;;;;-128.00;-1.00;-1.00;106659;1254;1003086;-60
2023/11/17 03:17:15;;;;;;;22.90;13.30;;;;;;;-128.00;-1.00;-1.00;106308;1256;1002710;-58
2023/11/17 03:19:43;;;;;;;23.20;13.60;;;;;;;-128.00;-1.00;-1.00;106640;1255;1002597;-59
2023/11/17 03:22:13;;;;;;;23.00;13.80;;;;;;;-128.00;-1.00;-1.00;106551;1256;1002175;-58
2023/11/17 03:24:44;;;;;;;22.70;13.30;;;;;;;-128.00;-1.00;-1.00;106387;1256;1013183;-58
2023/11/17 03:27:14;;;;;;;25.50;14.20;;;;;;;-128.00;-1.00;-1.00;106576;1255;1010021;-60
2023/11/17 03:29:46;;;;;;;34.70;15.50;;;;;;;-128.00;-1.00;-1.00;106565;1256;1011192;-60
2023/11/17 03:32:15;;;;;;;39.00;20.10;;;;;;;-128.00;-1.00;-1.00;106603;1254;1013198;-59
2023/11/17 03:34:43;;;;;;;;;;;;;;;-128.00;-1.00;-1.00;106504;1260;1011742;-60
2023/11/17 03:37:13;;;;;;;44.40;21.10;;;;;;;-128.00;-1.00;-1.00;106469;1255;1013179;-60
2023/11/17 03:39:43;;;;;;;54.20;24.60;;;;;;;-128.00;-1.00;-1.00;106458;1256;1009489;-60
2023/11/17 03:42:18;;;;;;;41.40;19.40;;;;;;;-128.00;-1.00;-1.00;106937;1252;1011735;-60
2023/11/17 03:44:46;;;;;;;31.70;16.70;;;;;;;-128.00;-1.00;-1.00;106888;1252;1013453;-59
2023/11/17 03:47:14;;;;;;;24.90;16.60;;;;;;;-128.00;-1.00;-1.00;106925;1252;1002484;-59
2023/11/17 03:49:46;;;;;;;39.40;21.60;;;;;;;-128.00;-1.00;-1.00;106951;1250;1002679;-58
2023/11/17 03:52:14;;;;;;;50.20;29.50;;;;;;;-128.00;-1.00;-1.00;106802;1254;1010113;-58
2023/11/17 03:54:42;;;;;;;55.20;28.40;;;;;;;-128.00;-1.00;-1.00;107097;1251;1010355;-58
2023/11/17 03:57:12;;;;;;;37.60;22.30;;;;;;;-128.00;-1.00;-1.00;107060;1251;1002782;-59
2023/11/17 03:59:46;;;;;;;55.00;26.60;;;;;;;-128.00;-1.00;-1.00;107019;1256;1012883;-60
2023/11/17 04:02:15;;;;;;;44.70;25.90;;;;;;;-128.00;-1.00;-1.00;107024;1250;1012965;-60
2023/11/17 04:04:42;;;;;;;;;;;;;;;-128.00;-1.00;-1.00;107042;1252;1010176;-62
2023/11/17 04:07:11;;;;;;;41.20;26.20;;;;;;;-128.00;-1.00;-1.00;106976;1250;1010423;-62
2023/11/17 04:09:39;;;;;;;46.10;24.20;;;;;;;-128.00;-1.00;-1.00;107076;1251;1013397;-59
2023/11/17 04:12:09;;;;;;;57.00;27.20;;;;;;;-128.00;-1.00;-1.00;107046;1251;1002246;-59
2023/11/17 04:14:37;;;;;;;45.40;22.00;;;;;;;-128.00;-1.00;-1.00;107029;1251;1012932;-57
2023/11/17 04:17:06;;;;;;;38.20;22.30;;;;;;;-128.00;-1.00;-1.00;106897;1251;1009971;-58
2023/11/17 04:19:34;;;;;;;36.60;20.50;;;;;;;-128.00;-1.00;-1.00;107080;1251;1002034;-58
2023/11/17 04:22:03;;;;;;;44.00;23.00;;;;;;;-128.00;-1.00;-1.00;107039;1251;1013036;-59
2023/11/17 04:24:30;;;;;;;36.40;19.70;;;;;;;-128.00;-1.00;-1.00;107001;1255;1012052;-59
2023/11/17 04:26:58;;;;;;;26.00;16.40;;;;;;;-128.00;-1.00;-1.00;107047;1252;1002475;-58
2023/11/17 04:29:25;;;;;;;28.40;17.00;;;;;;;-128.00;-1.00;-1.00;107041;1251;1002824;-58
2023/11/17 04:31:54;;;;;;;24.90;16.60;;;;;;;-128.00;-1.00;-1.00;107047;1251;1002716;-58
2023/11/17 04:34:22;;;;;;;44.30;19.80;;;;;;;-128.00;-1.00;-1.00;106955;1254;1012643;-58
2023/11/17 04:36:50;;;;;;;130.70;53.80;;;;;;;-128.00;-1.00;-1.00;107006;1256;1002214;-58
2023/11/17 04:39:18;;;;;;;94.40;41.00;;;;;;;-128.00;-1.00;-1.00;107000;1254;1002108;-58
2023/11/17 04:41:46;;;;;;;83.80;39.60;;;;;;;-128.00;-1.00;-1.00;106724;1251;1002422;-58
2023/11/17 04:44:14;;;;;;;44.20;23.50;;;;;;;-128.00;-1.00;-1.00;107031;1250;1011231;-58
2023/11/17 04:46:42;;;;;;;35.70;21.10;;;;;;;-128.00;-1.00;-1.00;107133;1251;1001925;-58
2023/11/17 04:49:12;;;;;;;36.10;18.30;;;;;;;-128.00;-1.00;-1.00;106941;1254;1003090;-58
2023/11/17 04:51:46;;;;;;;29.20;18.80;;;;;;;-128.00;-1.00;-1.00;106655;1251;1012033;-58
2023/11/17 04:54:15;;;;;;;29.70;17.20;;;;;;;-128.00;-1.00;-1.00;106948;1251;1009684;-58
2023/11/17 04:56:42;;;;;;;30.20;19.40;;;;;;;-128.00;-1.00;-1.00;106882;1252;1002902;-58
2023/11/17 04:59:13;;;;;;;37.60;20.00;;;;;;;-128.00;-1.00;-1.00;106981;1251;1002158;-57
2023/11/17 05:01:40;;;;;;;24.30;15.80;;;;;;;-128.00;-1.00;-1.00;106695;1251;1012252;-57
2023/11/17 05:04:08;;;;;;;19.50;14.00;;;;;;;-128.00;-1.00;-1.00;106892;1251;1002336;-57
2023/11/17 05:06:36;;;;;;;19.50;13.40;;;;;;;-128.00;-1.00;-1.00;106973;1251;1001849;-57
2023/11/17 05:09:10;;;;;;;23.70;15.30;;;;;;;-128.00;-1.00;-1.00;106873;1251;1011858;-57
2023/11/17 05:11:38;;;;;;;17.50;12.70;;;;;;;-128.00;-1.00;-1.00;106925;1251;1012398;-57
2023/11/17 05:14:06;;;;;;;18.00;12.70;;;;;;;-128.00;-1.00;-1.00;106931;1251;1012870;-58
2023/11/17 05:16:34;;;;;;;21.10;15.00;;;;;;;-128.00;-1.00;-1.00;106995;1251;1002113;-58
2023/11/17 05:19:05;;;;;;;23.40;14.70;;;;;;;-128.00;-1.00;-1.00;106921;1251;1010047;-59
2023/11/17 05:21:33;;;;;;;23.70;15.50;;;;;;;-128.00;-1.00;-1.00;106894;1251;1010898;-59
2023/11/17 05:24:02;;;;;;;21.50;15.00;;;;;;;-128.00;-1.00;-1.00;106894;1251;1001857;-58
2023/11/17 05:26:30;;;;;;;19.40;13.50;;;;;;;-128.00;-1.00;-1.00;106860;1250;1012979;-57
2023/11/17 05:28:57;;;;;;;26.90;18.50;;;;;;;-128.00;-1.00;-1.00;106927;1251;1002528;-58
2023/11/17 05:31:27;;;;;;;24.10;16.30;;;;;;;-128.00;-1.00;-1.00;106936;1251;1002455;-57
2023/11/17 05:33:57;;;;;;;24.00;14.90;;;;;;;-128.00;-1.00;-1.00;106906;1251;1010878;-57
2023/11/17 05:36:25;;;;;;;30.10;19.90;;;;;;;-128.00;-1.00;-1.00;106829;1251;1012612;-57
2023/11/17 05:38:54;;;;;;;22.40;16.00;;;;;;;-128.00;-1.00;-1.00;106825;1251;1001910;-57
2023/11/17 05:41:25;;;;;;;22.20;14.20;;;;;;;-128.00;-1.00;-1.00;106862;1251;1012280;-59
2023/11/17 05:43:53;;;;;;;30.20;21.50;;;;;;;-128.00;-1.00;-1.00;106932;1251;1010220;-57
2023/11/17 05:46:21;;;;;;;27.10;18.90;;;;;;;-128.00;-1.00;-1.00;106941;1251;1002250;-58
2023/11/17 05:48:50;;;;;;;34.00;24.20;;;;;;;-128.00;-1.00;-1.00;106875;1255;1001997;-58
2023/11/17 05:51:17;;;;;;;28.90;21.60;;;;;;;-128.00;-1.00;-1.00;106841;1252;1012254;-58
2023/11/17 05:53:45;;;;;;;22.20;14.40;;;;;;;-128.00;-1.00;-1.00;106922;1254;1002367;-59
2023/11/17 05:56:16;;;;;;;20.10;14.20;;;;;;;-128.00;-1.00;-1.00;106479;1254;1010487;-61
2023/11/17 05:58:43;;;;;;;34.70;24.40;;;;;;;-128.00;-1.00;-1.00;106888;1252;1010846;-60
2023/11/17 06:01:13;;;;;;;24.20;17.10;;;;;;;-128.00;-1.00;-1.00;106936;1253;1002530;-57
2023/11/17 06:03:41;;;;;;;21.00;14.20;;;;;;;-128.00;-1.00;-1.00;106833;1254;1013204;-58
2023/11/17 06:06:09;;;;;;;29.90;14.50;;;;;;;-128.00;-1.00;-1.00;106879;1253;1002150;-58
2023/11/17 06:08:37;;;;;;;27.10;13.80;;;;;;;-128.00;-1.00;-1.00;106672;1253;1002280;-59
2023/11/17 06:11:05;;;;;;;25.20;14.90;;;;;;;-128.00;-1.00;-1.00;106867;1253;1010696;-59
2023/11/17 06:13:40;;;;;;;23.40;13.00;;;;;;;-128.00;-1.00;-1.00;106837;1253;1013137;-57
2023/11/17 06:16:08;;;;;;;24.00;15.90;;;;;;;-128.00;-1.00;-1.00;106855;1256;1012815;-59
2023/11/17 06:18:36;;;;;;;26.50;12.30;;;;;;;-128.00;-1.00;-1.00;106815;1254;1002630;-59
2023/11/17 06:21:04;;;;;;;18.70;13.10;;;;;;;-128.00;-1.00;-1.00;106862;1253;1010095;-59
2023/11/17 06:23:32;;;;;;;23.50;14.70;;;;;;;-128.00;-1.00;-1.00;106881;1252;1002511;-59
2023/11/17 06:25:59;;;;;;;20.30;13.30;;;;;;;-128.00;-1.00;-1.00;106849;1254;1002337;-58
2023/11/17 06:28:27;;;;;;;20.70;13.30;;;;;;;-128.00;-1.00;-1.00;106644;1253;1002105;-58
2023/11/17 06:30:55;;;;;;;17.40;12.40;;;;;;;-128.00;-1.00;-1.00;106868;1252;1002170;-59
2023/11/17 06:33:23;;;;;;;32.00;19.40;;;;;;;-128.00;-1.00;-1.00;106590;1253;1009823;-58
2023/11/17 06:35:50;;;;;;;28.00;18.50;;;;;;;-128.00;-1.00;-1.00;106825;1252;1002347;-58
2023/11/17 06:38:18;;;;;;;25.00;15.40;;;;;;;-128.00;-1.00;-1.00;106973;1252;1002410;-59
2023/11/17 06:40:45;;;;;;;24.10;16.30;;;;;;;-128.00;-1.00;-1.00;106880;1256;1002320;-60
2023/11/17 06:43:14;;;;;;;22.40;15.90;;;;;;;-128.00;-1.00;-1.00;106908;1253;1002433;-57
2023/11/17 06:45:41;;;;;;;27.80;16.60;;;;;;;-128.00;-1.00;-1.00;106887;1254;1009753;-57
2023/11/17 06:48:09;;;;;;;22.40;15.00;;;;;;;-128.00;-1.00;-1.00;106617;1252;1002075;-59
2023/11/17 06:50:37;;;;;;;19.60;12.30;;;;;;;-128.00;-1.00;-1.00;106871;1252;1002339;-58
2023/11/17 06:53:04;;;;;;;15.10;11.20;;;;;;;-128.00;-1.00;-1.00;106865;1254;1002106;-59
2023/11/17 06:55:32;;;;;;;30.50;14.30;;;;;;;-128.00;-1.00;-1.00;106919;1253;1002655;-59
2023/11/17 06:57:59;;;;;;;28.90;16.80;;;;;;;-128.00;-1.00;-1.00;106886;1254;1002311;-59
2023/11/17 07:00:28;;;;;;;22.70;13.90;;;;;;;-128.00;-1.00;-1.00;106499;1253;1002589;-58
2023/11/17 07:02:55;;;;;;;41.00;17.60;;;;;;;-128.00;-1.00;-1.00;106385;1252;1002048;-58
2023/11/17 07:05:24;;;;;;;26.80;16.40;;;;;;;-128.00;-1.00;-1.00;106862;1253;1002102;-59
2023/11/17 07:07:57;;;;;;;40.50;24.20;;;;;;;-128.00;-1.00;-1.00;106708;1253;1012648;-59
2023/11/17 07:10:25;;;;;;;22.70;14.70;;;;;;;-128.00;-1.00;-1.00;106861;1253;1009723;-58
2023/11/17 07:12:52;;;;;;;51.00;30.00;;;;;;;-128.00;-1.00;-1.00;106885;1253;1002727;-58
2023/11/17 07:15:22;;;;;;;38.50;23.20;;;;;;;-128.00;-1.00;-1.00;106872;1253;1002393;-59
2023/11/17 07:17:51;;;;;;;49.40;26.40;;;;;;;-128.00;-1.00;-1.00;106836;1254;1012747;-58
2023/11/17 07:20:21;;;;;;;28.90;18.20;;;;;;;-128.00;-1.00;-1.00;106867;1254;1012133;-58
2023/11/17 07:22:49;;;;;;;43.40;25.60;;;;;;;-128.00;-1.00;-1.00;106710;1253;1011449;-58
2023/11/17 07:25:17;;;;;;;56.20;32.60;;;;;;;-128.00;-1.00;-1.00;106672;1253;1002221;-58
2023/11/17 07:27:44;;;;;;;26.30;15.30;;;;;;;-128.00;-1.00;-1.00;106895;1253;1002280;-58
2023/11/17 07:30:12;;;;;;;26.10;16.80;;;;;;;-128.00;-1.00;-1.00;106874;1254;1002920;-58
2023/11/17 07:32:46;;;;;;;26.20;15.40;;;;;;;-128.00;-1.00;-1.00;106844;1253;1012069;-58
2023/11/17 07:35:13;;;;;;;22.00;15.40;;;;;;;-128.00;-1.00;-1.00;106861;1254;1010206;-58
2023/11/17 07:37:41;;;;;;;21.50;14.60;;;;;;;-128.00;-1.00;-1.00;106911;1253;1002250;-59
2023/11/17 07:40:09;;;;;;;21.90;13.10;;;;;;;-128.00;-1.00;-1.00;106818;1254;1002331;-58
2023/11/17 07:42:39;;;;;;;15.90;11.80;;;;;;;-128.00;-1.00;-1.00;106847;1254;1012565;-58
2023/11/17 07:45:10;;;;;;;18.70;11.60;;;;;;;-128.00;-1.00;-1.00;106877;1253;1012857;-57
2023/11/17 07:47:41;;;;;;;24.40;16.50;;;;;;;-128.00;-1.00;-1.00;106866;1252;1010577;-58
2023/11/17 07:50:13;;;;;;;21.20;15.00;;;;;;;-128.00;-1.00;-1.00;106981;1251;1011211;-58
2023/11/17 07:52:43;;;;;;;21.80;13.40;;;;;;;-128.00;-1.00;-1.00;107094;1250;1012509;-58
2023/11/17 07:55:14;;;;;;;21.10;13.30;;;;;;;-128.00;-1.00;-1.00;106830;1250;1012643;-58
2023/11/17 07:57:42;;;;;;;25.70;15.00;;;;;;;-128.00;-1.00;-1.00;107130;1250;1012745;-57
2023/11/17 08:00:27;;;;;;;21.30;14.50;;;;;;;-128.00;-1.00;-1.00;106823;1250;1002934;-57
2023/11/17 08:02:54;;;;;;;20.20;13.10;;;;;;;-128.00;-1.00;-1.00;107074;1250;1011865;-57
2023/11/17 08:05:23;;;;;;;29.90;17.70;;;;;;;-128.00;-1.00;-1.00;107122;1251;1002603;-57
2023/11/17 08:07:53;;;;;;;25.60;16.40;;;;;;;-128.00;-1.00;-1.00;107111;1249;1012313;-58
2023/11/17 08:10:21;;;;;;;25.60;16.50;;;;;;;-128.00;-1.00;-1.00;107092;1249;1012251;-58
2023/11/17 08:12:49;;;;;;;32.80;18.60;;;;;;;-128.00;-1.00;-1.00;107112;1249;1002413;-57
2023/11/17 08:15:17;;;;;;;33.10;18.60;;;;;;;-128.00;-1.00;-1.00;107124;1250;1002236;-59
2023/11/17 08:17:44;;;;;;;34.80;19.50;;;;;;;-128.00;-1.00;-1.00;107117;1251;1002267;-59
2023/11/17 08:20:14;;;;;;;30.00;18.50;;;;;;;-128.00;-1.00;-1.00;107107;1250;1002498;-58
2023/11/17 08:22:42;;;;;;;29.20;17.60;;;;;;;-128.00;-1.00;-1.00;107062;1251;1012342;-58
2023/11/17 08:25:11;;;;;;;35.60;21.10;;;;;;;-128.00;-1.00;-1.00;107055;1251;1002368;-58
2023/11/17 08:27:38;;;;;;;31.60;20.00;;;;;;;-128.00;-1.00;-1.00;107106;1250;1011499;-59
2023/11/17 08:30:07;;;;;;;34.70;21.30;;;;;;;-128.00;-1.00;-1.00;107135;1250;1002281;-58
2023/11/17 08:32:39;;;;;;;34.40;20.70;;;;;;;-128.00;-1.00;-1.00;106905;1250;1012323;-58
2023/11/17 08:35:07;;;;;;;34.40;21.20;;;;;;;-128.00;-1.00;-1.00;107072;1250;1012366;-58
2023/11/17 08:37:35;;;;;;;32.50;21.00;;;;;;;-128.00;-1.00;-1.00;107099;1250;1011165;-59
2023/11/17 08:40:09;;;;;;;37.70;22.60;;;;;;;-128.00;-1.00;-1.00;107100;1248;1002517;-59
2023/11/17 08:42:37;;;;;;;32.70;20.50;;;;;;;-128.00;-1.00;-1.00;107139;1248;1013188;-60
2023/11/17 08:45:08;;;;;;;31.80;21.00;;;;;;;-128.00;-1.00;-1.00;107142;1248;1001710;-59
2023/11/17 08:47:37;;;;;;;35.60;18.50;;;;;;;-128.00;-1.00;-1.00;107085;1248;1012557;-58
2023/11/17 08:50:09;;;;;;;35.10;22.20;;;;;;;-128.00;-1.00;-1.00;106891;1251;1002496;-58
2023/11/17 08:52:39;;;;;;;29.60;20.10;;;;;;;-128.00;-1.00;-1.00;106772;1251;1010596;-59
2023/11/17 08:55:08;;;;;;;42.60;23.60;;;;;;;-128.00;-1.00;-1.00;106883;1251;1013237;-59
2023/11/17 08:57:36;;;;;;;37.10;22.80;;;;;;;-128.00;-1.00;-1.00;106426;1251;1012058;-59
2023/11/17 09:00:12;;;;;;;40.30;23.90;;;;;;;-128.00;-1.00;-1.00;106764;1251;1003691;-58
2023/11/17 09:02:45;;;;;;;36.00;22.80;;;;;;;-128.00;-1.00;-1.00;106687;1251;1010689;-58
2023/11/17 09:05:16;;;;;;;32.30;21.60;;;;;;;-128.00;-1.00;-1.00;106884;1251;1011459;-58
2023/11/17 09:07:44;;;;;;;27.20;17.20;;;;;;;-128.00;-1.00;-1.00;106889;1251;1012741;-58
2023/11/17 09:10:14;;;;;;;28.80;18.70;;;;;;;-128.00;-1.00;-1.00;106868;1251;1013195;-59
2023/11/17 09:12:45;;;;;;;25.00;16.40;;;;;;;-128.00;-1.00;-1.00;106875;1251;1013045;-59
2023/11/17 09:15:16;;;;;;;20.50;12.90;;;;;;;-128.00;-1.00;-1.00;106922;1251;1010080;-59
2023/11/17 09:17:47;;;;;;;20.20;13.40;;;;;;;-128.00;-1.00;-1.00;106900;1250;1010281;-58
2023/11/17 09:20:17;;;;;;;26.90;15.90;;;;;;;-128.00;-1.00;-1.00;106966;1251;1013203;-59
2023/11/17 09:22:45;;;;;;;24.30;15.70;;;;;;;-128.00;-1.00;-1.00;106876;1251;1012341;-58
2023/11/17 09:25:13;;;;;;;26.50;18.30;;;;;;;-128.00;-1.00;-1.00;106721;1251;1002523;-58
2023/11/17 09:27:41;;;;;;;21.80;14.20;;;;;;;-128.00;-1.00;-1.00;106933;1251;1010346;-58
2023/11/17 09:30:12;;;;;;;23.70;16.80;;;;;;;-128.00;-1.00;-1.00;106924;1251;1002352;-59
2023/11/17 09:32:55;;;;;;;20.50;15.00;;;;;;;-128.00;-1.00;-1.00;106791;1251;1015127;-59
2023/11/17 09:35:27;;;;;;;21.90;15.60;;;;;;;-128.00;-1.00;-1.00;106857;1251;1013071;-59
2023/11/17 09:37:59;;;;;;;21.20;15.10;;;;;;;-128.00;-1.00;-1.00;106926;1251;1012418;-59
2023/11/17 09:40:29;;;;;;;23.40;14.70;;;;;;;-128.00;-1.00;-1.00;106834;1250;1010503;-58
2023/11/17 09:42:58;;;;;;;22.70;12.50;;;;;;;-128.00;-1.00;-1.00;106890;1251;1011409;-58
2023/11/17 09:45:27;;;;;;;17.80;12.40;;;;;;;-128.00;-1.00;-1.00;106833;1250;1013294;-57
2023/11/17 09:47:57;;;;;;;18.50;13.10;;;;;;;-128.00;-1.00;-1.00;106835;1251;1014732;-59
2023/11/17 09:50:26;;;;;;;22.40;13.70;;;;;;;-128.00;-1.00;-1.00;106864;1251;1012285;-59
2023/11/17 09:52:59;;;;;;;14.30;11.10;;;;;;;-128.00;-1.00;-1.00;106852;1251;1010297;-60
2023/11/17 09:55:28;;;;;;;18.90;13.40;;;;;;;-128.00;-1.00;-1.00;106937;1251;1011888;-60
2023/11/17 09:58:03;;;;;;;18.20;13.90;;;;;;;-128.00;-1.00;-1.00;106953;1251;1013110;-59
2023/11/17 10:00:36;;;;;;;18.90;13.20;;;;;;;-128.00;-1.00;-1.00;106817;1256;1012831;-58
2023/11/17 10:03:05;;;;;;;15.50;10.60;;;;;;;-128.00;-1.00;-1.00;106883;1251;1012982;-59
2023/11/17 10:05:33;;;;;;;15.70;11.30;;;;;;;-128.00;-1.00;-1.00;106877;1251;1010952;-58
2023/11/17 10:08:14;;;;;;;22.10;14.50;;;;;;;-128.00;-1.00;-1.00;106849;1251;1002768;-58
2023/11/17 10:10:49;;;;;;;74.20;35.70;;;;;;;-128.00;-1.00;-1.00;106856;1256;1012839;-58
2023/11/17 10:13:18;;;;;;;23.90;14.10;;;;;;;-128.00;-1.00;-1.00;106836;1251;1012485;-58
2023/11/17 10:15:50;;;;;;;205.40;89.30;;;;;;;-128.00;-1.00;-1.00;106828;1251;1012058;-58
2023/11/17 10:18:29;;;;;;;107.90;41.40;;;;;;;-128.00;-1.00;-1.00;106890;1251;1010080;-58
2023/11/17 10:20:57;;;;;;;27.00;15.10;;;;;;;-128.00;-1.00;-1.00;106940;1251;1010367;-58
2023/11/17 10:23:27;;;;;;;22.20;12.60;;;;;;;-128.00;-1.00;-1.00;106896;1251;1013010;-58
2023/11/17 10:25:54;;;;;;;22.90;12.60;;;;;;;-128.00;-1.00;-1.00;106625;1256;1013412;-58
2023/11/17 10:28:24;;;;;;;19.60;12.00;;;;;;;-128.00;-1.00;-1.00;106865;1251;1012748;-58
2023/11/17 10:30:54;;;;;;;34.90;18.60;;;;;;;-128.00;-1.00;-1.00;106861;1251;1010367;-58
2023/11/17 10:33:31;;;;;;;33.80;16.60;;;;;;;-128.00;-1.00;-1.00;106876;1251;1010407;-58
2023/11/17 10:36:10;;;;;;;16.40;11.50;;;;;;;-128.00;-1.00;-1.00;106863;1253;1012799;-59
2023/11/17 10:38:45;;;;;;;12.80;9.80;;;;;;;-128.00;-1.00;-1.00;106531;1254;1013106;-59
2023/11/17 10:41:20;;;;;;;14.90;10.10;;;;;;;-128.00;-1.00;-1.00;106752;1253;1013437;-58
2023/11/17 10:43:53;;;;;;;16.80;11.40;;;;;;;-128.00;-1.00;-1.00;106719;1254;1009579;-58
2023/11/17 10:46:22;;;;;;;35.50;18.30;;;;;;;-128.00;-1.00;-1.00;106789;1254;1011331;-59
2023/11/17 10:48:50;;;;;;;11.80;9.70;;;;;;;-128.00;-1.00;-1.00;106789;1254;1015521;-58
2023/11/17 10:51:18;;;;;;;18.40;12.70;;;;;;;-128.00;-1.00;-1.00;106792;1253;1003808;-59
2023/11/17 10:54:05;;;;;;;14.40;10.50;;;;;;;-128.00;-1.00;-1.00;106808;1252;1002380;-58
2023/11/17 10:56:33;;;;;;;27.90;15.80;;;;;;;-128.00;-1.00;-1.00;106877;1253;1010248;-57
2023/11/17 10:59:04;;;;;;;51.10;23.00;;;;;;;-128.00;-1.00;-1.00;106779;1254;1002702;-58
2023/11/17 11:01:34;;;;;;;47.50;23.30;;;;;;;-128.00;-1.00;-1.00;106553;1254;1012868;-57
2023/11/17 11:07:01;;;;;;;62.10;28.80;;;;;;;-128.00;-1.00;-1.00;106515;1251;1012195;-57
2023/11/17 11:09:35;;;;;;;55.60;22.90;;;;;;;-128.00;-1.00;-1.00;106875;1251;1010762;-57
2023/11/17 11:12:06;;;;;;;50.00;23.50;;;;;;;-128.00;-1.00;-1.00;106893;1251;1011168;-59
2023/11/17 11:14:33;;;;;;;34.40;16.80;;;;;;;-128.00;-1.00;-1.00;106735;1251;1012789;-58
2023/11/17 11:17:01;;;;;;;45.30;21.90;;;;;;;-128.00;-1.00;-1.00;106884;1251;1002506;-58
2023/11/17 11:19:31;;;;;;;25.80;16.50;;;;;;;-128.00;-1.00;-1.00;106821;1251;1003109;-58